SondeTracker

Meteorological Radiosondes Database

Operations

Sounding was ended - last measurement: 2022-12-07 13:13:51z

MAP
About Radiosonde

Number: U3114537

Launch Site: Brasilia (BR)

Type: RS41

AUX: NO

Frequency: 403.001 MHz

Max Speed: 100 km/h at 12153 m

Average Speed: 35.75 km/h

Max Altitude: 25422 m

Average Ascent Speed: 5.96 m/s

Average Descent Speed: 11.86 m/s

Status: UNKNOWN

Status Changes
Launch Site Type AUX Frequency Status Finder Landing Point Description Changes made by
APRS Statistics

Received Frames: 138

First Frame [UTC]: 2022-12-07 11:34:42z

Last Frame [UTC]: 2022-12-07 13:13:51z

Receivers: PT2VHF

Flight Time: 01:39:09 h

Distance From First Measurement: 37.30 km

Nearest City: Águas Lindas de Goiás (BR) [8.45 km]

Nearest Hunter: [0.00 km]

Ground Altitude: 1038 m

Distance from QTH: 0.00 km

APRS Data
Receiver Number Date/Time [UTC] φ λ Course [°] Speed [km/h] Altitude [m] Description
PT2VHFU31145372022-12-07 13:13:51-15.7023-48.213721271688Clb=-3.9m/s t=18.7C h=83.9% p=834.0hPa 403.001 MHz Type=RS41-SGP ser=U3114537 Radiosonde
PT2VHFU31145372022-12-07 13:13:50-15.7021-48.213424091735Clb=-4.1m/s t=18.3C h=86.1% p=829.4hPa 403.001 MHz Type=RS41-SGP ser=U3114537 Radiosonde
PT2VHFU31145372022-12-07 13:13:47-15.7017-48.212922761873Clb=-3.5m/s t=17.4C h=82.2% p=816.5hPa 403.001 MHz Type=RS41-SGP ser=U3114537 Radiosonde
PT2VHFU31145372022-12-07 13:13:23-15.7015-48.212721521981Clb=-4.6m/s t=16.7C h=79.1% p=806.1hPa 403.001 MHz Type=RS41-SGP ser=U3114537 Radiosonde
PT2VHFU31145372022-12-07 13:12:58-15.7011-48.212618542112Clb=-4.1m/s t=15.6C h=82.0% p=793.9hPa 403.001 MHz Type=RS41-SGP ser=U3114537 Radiosonde
PT2VHFU31145372022-12-07 13:12:34-15.7007-48.212518362268Clb=-4.3m/s t=14.2C h=86.0% p=779.4hPa 403.001 MHz Type=RS41-SGP ser=U3114537 Radiosonde
PT2VHFU31145372022-12-07 13:12:07-15.7004-48.212714762375Clb=-4.6m/s t=13.8C h=71.9% p=769.6hPa 403.001 MHz Type=RS41-SGP ser=U3114537 Radiosonde
PT2VHFU31145372022-12-07 13:11:42-15.6999-48.213210892515Clb=-4.3m/s t=13.1C h=76.9% p=756.9hPa 403.001 MHz Type=RS41-SGP ser=U3114537 Radiosonde
PT2VHFU31145372022-12-07 13:11:14-15.6998-48.214192112654Clb=-4.6m/s t=12.3C h=73.7% p=744.6hPa 403.001 MHz Type=RS41-SGP ser=U3114537 Radiosonde
PT2VHFU31145372022-12-07 13:10:47-15.6996-48.2151104112800Clb=-4.5m/s t=11.6C h=73.1% p=731.9hPa 403.001 MHz Type=RS41-SGP ser=U3114537 Radiosonde
PT2VHFU31145372022-12-07 13:10:18-15.6992-48.216121132943Clb=-4.8m/s t=10.8C h=72.4% p=719.3hPa 403.001 MHz Type=RS41-SGP ser=U3114537 Radiosonde
PT2VHFU31145372022-12-07 13:09:46-15.6987-48.2171105153095Clb=-4.8m/s t=9.9C h=70.2% p=706.5hPa 403.001 MHz Type=RS41-SGP ser=U3114537 Radiosonde
PT2VHFU31145372022-12-07 13:09:13-15.6984-48.2183104153249Clb=-5.0m/s t=8.9C h=69.0% p=693.5hPa 403.001 MHz Type=RS41-SGP ser=U3114537 Radiosonde
PT2VHFU31145372022-12-07 13:08:39-15.698-48.2195113153404Clb=-4.9m/s t=7.8C h=71.4% p=680.8hPa 403.001 MHz Type=RS41-SGP ser=U3114537 Radiosonde
PT2VHFU31145372022-12-07 13:08:07-15.6976-48.2206108113557Clb=-5.1m/s t=6.8C h=70.6% p=668.2hPa 403.001 MHz Type=RS41-SGP ser=U3114537 Radiosonde
PT2VHFU31145372022-12-07 13:07:33-15.6975-48.2215101113714Clb=-4.8m/s t=6.7C h=52.0% p=655.7hPa 403.001 MHz Type=RS41-SGP ser=U3114537 Radiosonde
PT2VHFU31145372022-12-07 13:06:52-15.6974-48.222795133866Clb=-5.3m/s t=6.4C h=36.1% p=643.6hPa 403.001 MHz Type=RS41-SGP ser=U3114537 Radiosonde
PT2VHFU31145372022-12-07 13:06:15-15.6973-48.2238100114021Clb=-4.8m/s t=5.6C h=33.6% p=631.6hPa 403.001 MHz Type=RS41-SGP ser=U3114537 Radiosonde
PT2VHFU31145372022-12-07 13:05:35-15.6973-48.224889134175Clb=-5.0m/s t=4.6C h=40.3% p=619.9hPa 403.001 MHz Type=RS41-SGP ser=U3114537 Radiosonde
PT2VHFU31145372022-12-07 13:04:51-15.6972-48.226395224331Clb=-5.1m/s t=4.6C h=23.3% p=608.1hPa 403.001 MHz Type=RS41-SGP ser=U3114537 Radiosonde
PT2VHFU31145372022-12-07 13:04:13-15.697-48.227992154492Clb=-5.0m/s t=3.6C h=16.2% p=596.3hPa 403.001 MHz Type=RS41-SGP ser=U3114537 Radiosonde
PT2VHFU31145372022-12-07 13:03:35-15.6968-48.2293101194649Clb=-4.9m/s t=2.6C h=17.9% p=584.8hPa 403.001 MHz Type=RS41-SGP ser=U3114537 Radiosonde
PT2VHFU31145372022-12-07 13:02:55-15.6964-48.2311103204811Clb=-4.7m/s t=1.4C h=20.4% p=573.2hPa 403.001 MHz Type=RS41-SGP ser=U3114537 Radiosonde
PT2VHFU31145372022-12-07 13:02:13-15.696-48.2326106204955Clb=-5.1m/s t=0.9C h=13.0% p=563.1hPa 403.001 MHz Type=RS41-SGP ser=U3114537 Radiosonde
PT2VHFU31145372022-12-07 13:01:30-15.6955-48.2342103175109Clb=-4.6m/s t=-0.2C h=5.8% p=552.4hPa 403.001 MHz Type=RS41-SGP ser=U3114537 Radiosonde
PT2VHFU31145372022-12-07 13:00:39-15.6952-48.2356104205256Clb=-4.9m/s t=-0.9C h=8.1% p=542.4hPa 403.001 MHz Type=RS41-SGP ser=U3114537 Radiosonde
PT2VHFU31145372022-12-07 12:59:51-15.6948-48.237798205462Clb=-4.9m/s t=-2.4C h=6.7% p=528.5hPa 403.001 MHz Type=RS41-SGP ser=U3114537 Radiosonde
PT2VHFU31145372022-12-07 12:59:20-15.6947-48.2389100205574Clb=-4.8m/s t=-3.1C h=6.7% p=521.0hPa 403.001 MHz Type=RS41-SGP ser=U3114537 Radiosonde
PT2VHFU31145372022-12-07 12:58:49-15.6946-48.240682205739Clb=-5.1m/s t=-4.5C h=21.9% p=510.2hPa 403.001 MHz Type=RS41-SGP ser=U3114537 Radiosonde
PT2VHFU31145372022-12-07 12:58:18-15.6951-48.242570205966Clb=-8.5m/s t=-6.4C h=22.6% p=495.7hPa 403.001 MHz Type=RS41-SGP ser=U3114537 Radiosonde
PT2VHFU31145372022-12-07 12:58:07-15.6969-48.245535277214Clb=-7.6m/s t=-13.1C h=73.9% p=421.8hPa 403.001 MHz Type=RS41-SGP ser=U3114537 Radiosonde
PT2VHFU31145372022-12-07 12:57:58-15.6973-48.245433127466Clb=-10.0m/s t=-14.6C h=69.0% p=408.4hPa 403.001 MHz Type=RS41-SGP ser=U3114537 Radiosonde
PT2VHFU31145372022-12-07 12:57:54-15.6973-48.245417228222Clb=-14.9m/s t=-20.6C h=79.1% p=369.7hPa 403.001 MHz Type=RS41-SGP ser=U3114537 Radiosonde
PT2VHFU31145372022-12-07 12:57:50-15.6984-48.2454350159125Clb=-8.6m/s t=-27.5C h=81.1% p=326.5hPa 403.001 MHz Type=RS41-SGP ser=U3114537 Radiosonde
PT2VHFU31145372022-12-07 12:57:49-15.6996-48.2449336269387Clb=-14.4m/s t=-29.2C h=64.5% p=315.1hPa 403.001 MHz Type=RS41-SGP ser=U3114537 Radiosonde
PT2VHFU31145372022-12-07 12:57:46-15.7009-48.2439324209743Clb=-11.3m/s t=-32.0C h=54.8% p=299.4hPa 403.001 MHz Type=RS41-SGP ser=U3114537 Radiosonde
PT2VHFU31145372022-12-07 12:57:44-15.7024-48.2433402410088Clb=-10.3m/s t=-34.9C h=55.9% p=285.2hPa 403.001 MHz Type=RS41-SGP ser=U3114537 Radiosonde
PT2VHFU31145372022-12-07 12:57:28-15.7046-48.24213393510390Clb=-9.4m/s t=-37.6C h=69.3% p=273.0hPa 403.001 MHz Type=RS41-SGP ser=U3114537 Radiosonde
PT2VHFU31145372022-12-07 12:56:32-15.7077-48.2413344610692Clb=-9.8m/s t=-40.0C h=60.1% p=261.1hPa 403.001 MHz Type=RS41-SGP ser=U3114537 Radiosonde
PT2VHFU31145372022-12-07 12:55:36-15.7115-48.2393316110988Clb=-10.5m/s t=-42.2C h=51.8% p=250.2hPa 403.001 MHz Type=RS41-SGP ser=U3114537 Radiosonde
PT2VHFU31145372022-12-07 12:54:44-15.7158-48.23673336511301Clb=-11.2m/s t=-44.9C h=52.1% p=238.9hPa 403.001 MHz Type=RS41-SGP ser=U3114537 Radiosonde
PT2VHFU31145372022-12-07 12:53:53-15.7206-48.23443386911636Clb=-16.7m/s t=-48.0C h=56.1% p=227.5hPa 403.001 MHz Type=RS41-SGP ser=U3114537 Radiosonde
PT2VHFU31145372022-12-07 12:53:00-15.7258-48.23233387812138Clb=-16.4m/s t=-52.6C h=48.1% p=210.7hPa 403.001 MHz Type=RS41-SGP ser=U3114537 Radiosonde
PT2VHFU31145372022-12-07 12:51:53-15.7317-48.23023427812605Clb=-13.1m/s t=-56.9C h=41.4% p=195.8hPa 403.001 MHz Type=RS41-SGP ser=U3114537 Radiosonde
PT2VHFU31145372022-12-07 12:50:58-15.7377-48.22863507812909Clb=-9.8m/s t=-59.1C h=26.9% p=186.6hPa 403.001 MHz Type=RS41-SGP ser=U3114537 Radiosonde
PT2VHFU31145372022-12-07 12:50:03-15.7439-48.22673389313186Clb=-8.1m/s t=-60.1C h=24.8% p=178.4hPa 403.001 MHz Type=RS41-SGP ser=U3114537 Radiosonde
PT2VHFU31145372022-12-07 12:49:03-15.7505-48.22333288713490Clb=-9.3m/s t=-61.6C h=23.1% p=170.0hPa 403.001 MHz Type=RS41-SGP ser=U3114537 Radiosonde
PT2VHFU31145372022-12-07 12:48:03-15.7556-48.21923138313779Clb=-10.0m/s t=-63.2C h=17.6% p=162.3hPa 403.001 MHz Type=RS41-SGP ser=U3114537 Radiosonde
PT2VHFU31145372022-12-07 12:46:59-15.7592-48.2142977014088Clb=-10.5m/s t=-64.4C h=18.4% p=154.3hPa 403.001 MHz Type=RS41-SGP ser=U3114537 Radiosonde
PT2VHFU31145372022-12-07 12:46:00-15.761-48.20912805914416Clb=-10.7m/s t=-67.2C h=23.0% p=146.2hPa 403.001 MHz Type=RS41-SGP ser=U3114537 Radiosonde
PT2VHFU31145372022-12-07 12:45:04-15.7618-48.20482845014746Clb=-10.7m/s t=-70.1C h=25.7% p=138.4hPa 403.001 MHz Type=RS41-SGP ser=U3114537 Radiosonde
PT2VHFU31145372022-12-07 12:44:01-15.7625-48.20082774615085Clb=-11.2m/s t=-73.3C h=26.4% p=130.7hPa 403.001 MHz Type=RS41-SGP ser=U3114537 Radiosonde
PT2VHFU31145372022-12-07 12:43:26-15.7629-48.19732814815433Clb=-11.6m/s t=-75.4C h=23.8% p=123.2hPa 403.001 MHz Type=RS41-SGP ser=U3114537 Radiosonde
PT2VHFU31145372022-12-07 12:42:59-15.7642-48.19252796915787Clb=-11.9m/s t=-75.9C h=19.5% p=115.9hPa 403.001 MHz Type=RS41-SGP ser=U3114537 Radiosonde
PT2VHFU31145372022-12-07 12:42:18-15.7647-48.18762755416150Clb=-11.8m/s t=-77.9C h=19.9% p=108.8hPa 403.001 MHz Type=RS41-SGP ser=U3114537 Radiosonde
PT2VHFU31145372022-12-07 12:41:43-15.765-48.18262616116509Clb=-12.4m/s t=-76.5C h=15.0% p=102.2hPa 403.001 MHz Type=RS41-SGP ser=U3114537 Radiosonde
PT2VHFU31145372022-12-07 12:41:12-15.7641-48.17852644316893Clb=-12.2m/s t=-78.5C h=14.8% p=95.6hPa 403.001 MHz Type=RS41-SGP ser=U3114537 Radiosonde
PT2VHFU31145372022-12-07 12:40:29-15.766-48.1165942825422Clb=5.5m/s t=-52.5C h=1.4% p=23.5hPa 403.001 MHz Type=RS41-SGP ser=U3114537 Radiosonde
PT2VHFU31145372022-12-07 12:39:12-15.765-48.11781311925198Clb=5.6m/s t=-51.4C h=1.3% p=24.3hPa 403.001 MHz Type=RS41-SGP ser=U3114537 Radiosonde
PT2VHFU31145372022-12-07 12:37:59-15.7632-48.11781851724985Clb=7.9m/s t=-51.0C h=1.1% p=25.2hPa 403.001 MHz Type=RS41-SGP ser=U3114537 Radiosonde
PT2VHFU31145372022-12-07 12:36:49-15.7613-48.11652093024764Clb=5.9m/s t=-55.2C h=1.4% p=26.0hPa 403.001 MHz Type=RS41-SGP ser=U3114537 Radiosonde
PT2VHFU31145372022-12-07 12:35:37-15.7588-48.11382406124532Clb=8.3m/s t=-57.7C h=1.6% p=27.0hPa 403.001 MHz Type=RS41-SGP ser=U3114537 Radiosonde
PT2VHFU31145372022-12-07 12:34:18-15.7579-48.10972723124281Clb=5.9m/s t=-58.7C h=1.7% p=28.1hPa 403.001 MHz Type=RS41-SGP ser=U3114537 Radiosonde
PT2VHFU31145372022-12-07 12:33:09-15.7578-48.10792821724068Clb=7.9m/s t=-58.0C h=1.6% p=29.0hPa 403.001 MHz Type=RS41-SGP ser=U3114537 Radiosonde
PT2VHFU31145372022-12-07 12:31:55-15.757-48.1074204723829Clb=7.0m/s t=-57.1C h=1.5% p=30.2hPa 403.001 MHz Type=RS41-SGP ser=U3114537 Radiosonde
PT2VHFU31145372022-12-07 12:30:37-15.7554-48.10682773023601Clb=9.0m/s t=-56.4C h=1.4% p=31.3hPa 403.001 MHz Type=RS41-SGP ser=U3114537 Radiosonde
PT2VHFU31145372022-12-07 12:29:19-15.7549-48.10432744423393Clb=4.3m/s t=-58.9C h=1.6% p=32.3hPa 403.001 MHz Type=RS41-SGP ser=U3114537 Radiosonde
PT2VHFU31145372022-12-07 12:28:04-15.7555-48.10032865723189Clb=8.6m/s t=-60.1C h=1.8% p=33.4hPa 403.001 MHz Type=RS41-SGP ser=U3114537 Radiosonde
PT2VHFU31145372022-12-07 12:26:45-15.7559-48.09722642622976Clb=6.5m/s t=-60.9C h=1.9% p=34.6hPa 403.001 MHz Type=RS41-SGP ser=U3114537 Radiosonde
PT2VHFU31145372022-12-07 12:25:31-15.7557-48.09362874822760Clb=9.3m/s t=-61.9C h=2.0% p=35.8hPa 403.001 MHz Type=RS41-SGP ser=U3114537 Radiosonde
PT2VHFU31145372022-12-07 12:24:12-15.7569-48.09023123922543Clb=7.3m/s t=-61.4C h=2.0% p=37.0hPa 403.001 MHz Type=RS41-SGP ser=U3114537 Radiosonde
PT2VHFU31145372022-12-07 12:23:48-15.7584-48.08783093022339Clb=6.4m/s t=-62.0C h=2.0% p=38.2hPa 403.001 MHz Type=RS41-SGP ser=U3114537 Radiosonde
PT2VHFU31145372022-12-07 12:23:05-15.7591-48.08532684122135Clb=5.2m/s t=-61.7C h=2.0% p=39.5hPa 403.001 MHz Type=RS41-SGP ser=U3114537 Radiosonde
PT2VHFU31145372022-12-07 12:22:48-15.7584-48.08172594121934Clb=6.7m/s t=-62.3C h=2.1% p=40.8hPa 403.001 MHz Type=RS41-SGP ser=U3114537 Radiosonde
PT2VHFU31145372022-12-07 12:22:10-15.7585-48.07822754321747Clb=5.7m/s t=-62.5C h=2.3% p=42.1hPa 403.001 MHz Type=RS41-SGP ser=U3114537 Radiosonde
PT2VHFU31145372022-12-07 12:21:18-15.7643-47.99812746317957Clb=6.9m/s t=-73.3C h=19.7% p=79.3hPa 403.001 MHz Type=RS41-SGP ser=U3114537 Radiosonde
PT2VHFU31145372022-12-07 12:20:09-15.7653-47.99372984317764Clb=5.4m/s t=-74.9C h=23.4% p=82.0hPa 403.001 MHz Type=RS41-SGP ser=U3114537 Radiosonde
PT2VHFU31145372022-12-07 12:18:58-15.7657-47.98952805717544Clb=4.8m/s t=-76.5C h=27.4% p=85.2hPa 403.001 MHz Type=RS41-SGP ser=U3114537 Radiosonde
PT2VHFU31145372022-12-07 12:17:51-15.7666-47.98532795917385Clb=6.3m/s t=-76.9C h=26.7% p=87.5hPa 403.001 MHz Type=RS41-SGP ser=U3114537 Radiosonde
PT2VHFU31145372022-12-07 12:16:52-15.7676-47.98132764617213Clb=7.1m/s t=-79.5C h=32.1% p=90.3hPa 403.001 MHz Type=RS41-SGP ser=U3114537 Radiosonde
PT2VHFU31145372022-12-07 12:15:56-15.7678-47.9772634417024Clb=3.5m/s t=-79.0C h=31.9% p=93.2hPa 403.001 MHz Type=RS41-SGP ser=U3114537 Radiosonde
PT2VHFU31145372022-12-07 12:15:00-15.767-47.9732545416844Clb=6.1m/s t=-78.8C h=33.7% p=96.2hPa 403.001 MHz Type=RS41-SGP ser=U3114537 Radiosonde
PT2VHFU31145372022-12-07 12:14:00-15.7659-47.96792576516632Clb=7.0m/s t=-77.2C h=31.3% p=99.8hPa 403.001 MHz Type=RS41-SGP ser=U3114537 Radiosonde
PT2VHFU31145372022-12-07 12:12:52-15.7661-47.96232826916446Clb=4.3m/s t=-78.3C h=34.3% p=103.1hPa 403.001 MHz Type=RS41-SGP ser=U3114537 Radiosonde
PT2VHFU31145372022-12-07 12:11:41-15.7669-47.95742735016271Clb=5.7m/s t=-78.5C h=35.0% p=106.3hPa 403.001 MHz Type=RS41-SGP ser=U3114537 Radiosonde
PT2VHFU31145372022-12-07 12:10:34-15.7675-47.95142775716039Clb=5.7m/s t=-77.8C h=34.4% p=110.8hPa 403.001 MHz Type=RS41-SGP ser=U3114537 Radiosonde
PT2VHFU31145372022-12-07 12:09:18-15.7681-47.94812786515917Clb=2.9m/s t=-76.9C h=32.4% p=113.2hPa 403.001 MHz Type=RS41-SGP ser=U3114537 Radiosonde
PT2VHFU31145372022-12-07 12:08:10-15.7696-47.94272936315713Clb=6.2m/s t=-76.9C h=33.5% p=117.3hPa 403.001 MHz Type=RS41-SGP ser=U3114537 Radiosonde
PT2VHFU31145372022-12-07 12:07:03-15.7707-47.9392854615509Clb=6.7m/s t=-75.9C h=31.4% p=121.5hPa 403.001 MHz Type=RS41-SGP ser=U3114537 Radiosonde
PT2VHFU31145372022-12-07 12:05:57-15.771-47.93552594115299Clb=8.1m/s t=-74.1C h=26.4% p=126.0hPa 403.001 MHz Type=RS41-SGP ser=U3114537 Radiosonde
PT2VHFU31145372022-12-07 12:04:52-15.7713-47.93193004815058Clb=12.3m/s t=-73.0C h=23.3% p=131.2hPa 403.001 MHz Type=RS41-SGP ser=U3114537 Radiosonde
PT2VHFU31145372022-12-07 12:03:54-15.7722-47.92772486714781Clb=7.2m/s t=-70.4C h=19.5% p=137.4hPa 403.001 MHz Type=RS41-SGP ser=U3114537 Radiosonde
PT2VHFU31145372022-12-07 12:03:29-15.7729-47.92332925214523Clb=10.8m/s t=-67.9C h=15.6% p=143.4hPa 403.001 MHz Type=RS41-SGP ser=U3114537 Radiosonde
PT2VHFU31145372022-12-07 12:02:53-15.7895-47.90423389813262Clb=4.9m/s t=-60.9C h=27.0% p=176.0hPa 403.001 MHz Type=RS41-SGP ser=U3114537 Radiosonde
PT2VHFU31145372022-12-07 12:02:50-15.7991-47.90223427012916Clb=5.9m/s t=-59.0C h=33.4% p=186.2hPa 403.001 MHz Type=RS41-SGP ser=U3114537 Radiosonde
PT2VHFU31145372022-12-07 12:02:30-15.8017-47.90153368112830Clb=10.5m/s t=-58.6C h=38.1% p=188.7hPa 403.001 MHz Type=RS41-SGP ser=U3114537 Radiosonde
PT2VHFU31145372022-12-07 12:01:59-15.8078-47.93548712600Clb=4.4m/s t=-56.5C h=50.6% p=195.7hPa 403.001 MHz Type=RS41-SGP ser=U3114537 Radiosonde
PT2VHFU31145372022-12-07 12:01:55-15.8141-47.89843358112384Clb=8.9m/s t=-54.6C h=52.2% p=202.3hPa 403.001 MHz Type=RS41-SGP ser=U3114537 Radiosonde
PT2VHFU31145372022-12-07 12:01:52-15.8203-47.896233410012153Clb=7.9m/s t=-52.6C h=48.1% p=209.9hPa 403.001 MHz Type=RS41-SGP ser=U3114537 Radiosonde
PT2VHFU31145372022-12-07 12:01:48-15.8256-47.89373328311941Clb=7.1m/s t=-50.8C h=64.5% p=216.7hPa 403.001 MHz Type=RS41-SGP ser=U3114537 Radiosonde
PT2VHFU31145372022-12-07 12:01:46-15.8307-47.89133437011733Clb=5.0m/s t=-48.8C h=59.2% p=223.8hPa 403.001 MHz Type=RS41-SGP ser=U3114537 Radiosonde
PT2VHFU31145372022-12-07 12:01:27-15.8353-47.88923346311519Clb=7.3m/s t=-47.0C h=56.8% p=230.9hPa 403.001 MHz Type=RS41-SGP ser=U3114537 Radiosonde
PT2VHFU31145372022-12-07 12:00:28-15.84-47.88733377611316Clb=7.7m/s t=-45.1C h=57.0% p=238.2hPa 403.001 MHz Type=RS41-SGP ser=U3114537 Radiosonde
PT2VHFU31145372022-12-07 11:59:23-15.8443-47.88523385911092Clb=8.7m/s t=-43.2C h=60.8% p=246.5hPa 403.001 MHz Type=RS41-SGP ser=U3114537 Radiosonde
PT2VHFU31145372022-12-07 11:58:16-15.8482-47.88433515710859Clb=7.5m/s t=-41.3C h=64.4% p=255.0hPa 403.001 MHz Type=RS41-SGP ser=U3114537 Radiosonde
PT2VHFU31145372022-12-07 11:57:03-15.8515-47.88302610631Clb=9.3m/s t=-39.6C h=61.6% p=263.5hPa 403.001 MHz Type=RS41-SGP ser=U3114537 Radiosonde
PT2VHFU31145372022-12-07 11:55:59-15.854-47.88223462610385Clb=7.4m/s t=-37.4C h=62.3% p=273.2hPa 403.001 MHz Type=RS41-SGP ser=U3114537 Radiosonde
PT2VHFU31145372022-12-07 11:55:00-15.8567-47.881412810146Clb=9.6m/s t=-35.4C h=58.8% p=282.6hPa 403.001 MHz Type=RS41-SGP ser=U3114537 Radiosonde
PT2VHFU31145372022-12-07 11:54:01-15.8581-47.8806312249902Clb=9.3m/s t=-33.1C h=46.6% p=292.6hPa 403.001 MHz Type=RS41-SGP ser=U3114537 Radiosonde
PT2VHFU31145372022-12-07 11:53:01-15.8593-47.8802350339678Clb=9.4m/s t=-31.3C h=46.9% p=301.9hPa 403.001 MHz Type=RS41-SGP ser=U3114537 Radiosonde
PT2VHFU31145372022-12-07 11:52:00-15.861-47.879827419474Clb=7.9m/s t=-29.7C h=54.8% p=310.6hPa 403.001 MHz Type=RS41-SGP ser=U3114537 Radiosonde
PT2VHFU31145372022-12-07 11:51:28-15.863-47.879633379251Clb=8.6m/s t=-28.5C h=76.9% p=320.6hPa 403.001 MHz Type=RS41-SGP ser=U3114537 Radiosonde
PT2VHFU31145372022-12-07 11:51:16-15.8647-47.88087227496Clb=5.9m/s t=-15.3C h=78.7% p=406.4hPa 403.001 MHz Type=RS41-SGP ser=U3114537 Radiosonde
PT2VHFU31145372022-12-07 11:51:14-15.8648-47.8809334157292Clb=8.4m/s t=-13.8C h=75.0% p=417.3hPa 403.001 MHz Type=RS41-SGP ser=U3114537 Radiosonde
PT2VHFU31145372022-12-07 11:51:12-15.8645-47.8813164227104Clb=4.7m/s t=-12.6C h=77.4% p=427.9hPa 403.001 MHz Type=RS41-SGP ser=U3114537 Radiosonde
PT2VHFU31145372022-12-07 11:50:43-15.8645-47.88282266890Clb=5.8m/s t=-11.2C h=75.7% p=439.9hPa 403.001 MHz Type=RS41-SGP ser=U3114537 Radiosonde
PT2VHFU31145372022-12-07 11:49:47-15.8645-47.882684246664Clb=8.5m/s t=-9.5C h=71.4% p=452.9hPa 403.001 MHz Type=RS41-SGP ser=U3114537 Radiosonde
PT2VHFU31145372022-12-07 11:48:52-15.8649-47.883558306466Clb=5.8m/s t=-8.3C h=66.2% p=464.7hPa 403.001 MHz Type=RS41-SGP ser=U3114537 Radiosonde
PT2VHFU31145372022-12-07 11:47:55-15.8653-47.885124206251Clb=4.0m/s t=-6.8C h=52.5% p=477.6hPa 403.001 MHz Type=RS41-SGP ser=U3114537 Radiosonde
PT2VHFU31145372022-12-07 11:46:53-15.8655-47.886230196029Clb=5.7m/s t=-6.0C h=59.9% p=491.2hPa 403.001 MHz Type=RS41-SGP ser=U3114537 Radiosonde
PT2VHFU31145372022-12-07 11:45:55-15.8655-47.8875114335809Clb=4.8m/s t=-5.2C h=28.4% p=505.2hPa 403.001 MHz Type=RS41-SGP ser=U3114537 Radiosonde
PT2VHFU31145372022-12-07 11:44:56-15.8652-47.889694265579Clb=7.7m/s t=-4.1C h=29.0% p=520.3hPa 403.001 MHz Type=RS41-SGP ser=U3114537 Radiosonde
PT2VHFU31145372022-12-07 11:44:01-15.8647-47.8913121265339Clb=6.6m/s t=-2.4C h=24.0% p=536.2hPa 403.001 MHz Type=RS41-SGP ser=U3114537 Radiosonde
PT2VHFU31145372022-12-07 11:43:55-15.864-47.892812295106Clb=4.8m/s t=-0.6C h=13.3% p=552.0hPa 403.001 MHz Type=RS41-SGP ser=U3114537 Radiosonde
PT2VHFU31145372022-12-07 11:43:46-15.8629-47.8946105334899Clb=5.4m/s t=0.7C h=22.0% p=566.6hPa 403.001 MHz Type=RS41-SGP ser=U3114537 Radiosonde
PT2VHFU31145372022-12-07 11:43:23-15.862-47.8965116224691Clb=5.8m/s t=1.5C h=45.4% p=581.2hPa 403.001 MHz Type=RS41-SGP ser=U3114537 Radiosonde
PT2VHFU31145372022-12-07 11:42:53-15.8616-47.8979102204453Clb=10.1m/s t=3.6C h=21.9% p=598.5hPa 403.001 MHz Type=RS41-SGP ser=U3114537 Radiosonde
PT2VHFU31145372022-12-07 11:42:17-15.8612-47.899673264232Clb=8.8m/s t=4.6C h=27.9% p=614.5hPa 403.001 MHz Type=RS41-SGP ser=U3114537 Radiosonde
PT2VHFU31145372022-12-07 11:41:24-15.8609-47.901197203999Clb=6.1m/s t=5.6C h=47.9% p=632.6hPa 403.001 MHz Type=RS41-SGP ser=U3114537 Radiosonde
PT2VHFU31145372022-12-07 11:40:30-15.8605-47.902399223772Clb=10.5m/s t=6.7C h=50.0% p=650.3hPa 403.001 MHz Type=RS41-SGP ser=U3114537 Radiosonde
PT2VHFU31145372022-12-07 11:39:51-15.8602-47.903265153541Clb=6.7m/s t=8.2C h=48.8% p=668.6hPa 403.001 MHz Type=RS41-SGP ser=U3114537 Radiosonde
PT2VHFU31145372022-12-07 11:38:52-15.8603-47.904386193305Clb=8.9m/s t=9.6C h=59.5% p=687.9hPa 403.001 MHz Type=RS41-SGP ser=U3114537 Radiosonde
PT2VHFU31145372022-12-07 11:37:52-15.8599-47.9058043070Clb=8.1m/s t=9.9C h=75.1% p=707.6hPa 403.001 MHz Type=RS41-SGP ser=U3114537 Radiosonde
PT2VHFU31145372022-12-07 11:36:50-15.8598-47.905413072839Clb=10.1m/s t=11.5C h=68.6% p=727.5hPa 403.001 MHz Type=RS41-SGP ser=U3114537 Radiosonde
PT2VHFU31145372022-12-07 11:35:56-15.8595-47.905722242595Clb=7.4m/s t=12.3C h=73.8% p=748.9hPa 403.001 MHz Type=RS41-SGP ser=U3114537 Radiosonde
PT2VHFU31145372022-12-07 11:35:25-15.8592-47.90596522362Clb=7.5m/s t=13.8C h=77.7% p=770.0hPa 403.001 MHz Type=RS41-SGP ser=U3114537 Radiosonde
PT2VHFU31145372022-12-07 11:34:53-15.8592-47.905819542126Clb=7.5m/s t=15.0C h=-1.0% p=791.5hPa 403.001 MHz Type=RS41-SGP ser=U3114537 Radiosonde
PT2VHFU31145372022-12-07 11:34:42-15.8589-47.905419761895Clb=8.3m/s t=-273.0C h=-1.0% p=-1.0hPa 403.001 MHz Type=RS41 ser=U3114537 Radiosonde